createdAt,value
2019-03-02T00:01:34.483Z,7.43
2019-03-02T00:04:10.110Z,7.41
2019-03-02T00:06:42.614Z,7.39
2019-03-02T00:09:16.465Z,7.52
2019-03-02T00:11:49.397Z,7.45
2019-03-02T00:14:23.596Z,7.43
2019-03-02T00:16:56.491Z,7.40
2019-03-02T00:19:30.624Z,7.37
2019-03-02T00:22:06.795Z,7.44
2019-03-02T00:24:37.513Z,7.42
2019-03-02T00:27:10.533Z,7.39
2019-03-02T00:29:45.915Z,7.36
2019-03-02T00:32:16.660Z,7.35
2019-03-02T00:34:49.180Z,7.44
2019-03-02T00:37:22.591Z,7.48
2019-03-02T00:39:54.631Z,7.57
2019-03-02T00:42:31.232Z,7.72
2019-03-02T00:45:03.596Z,7.70
2019-03-02T00:47:36.756Z,7.73
2019-03-02T00:50:12.715Z,7.84
2019-03-02T00:52:46.720Z,7.79
2019-03-02T00:55:20.657Z,7.80
2019-03-02T00:57:53.664Z,7.86
2019-03-02T01:00:27.779Z,7.91
2019-03-02T01:03:00.638Z,7.91
2019-03-02T01:05:33.509Z,7.88
2019-03-02T01:08:07.727Z,7.94
2019-03-02T01:10:42.433Z,7.91
2019-03-02T01:13:16.855Z,7.96
2019-03-02T01:15:48.629Z,7.92
2019-03-02T01:18:23.220Z,7.85
2019-03-02T01:20:56.672Z,7.86
2019-03-02T01:23:28.917Z,7.93
2019-03-02T01:26:01.819Z,7.91
2019-03-02T01:28:34.817Z,7.93
2019-03-02T01:31:07.849Z,7.83
2019-03-02T01:33:41.288Z,7.80
2019-03-02T01:36:13.797Z,7.73
2019-03-02T01:38:45.087Z,7.72
2019-03-02T01:41:17.691Z,7.70
2019-03-02T01:43:49.827Z,7.65
2019-03-02T01:46:24.506Z,7.61
2019-03-02T01:48:58.694Z,7.62
2019-03-02T01:51:30.866Z,7.59
2019-03-02T01:54:04.962Z,7.57
2019-03-02T01:56:37.704Z,7.56
2019-03-02T01:59:10.873Z,7.60
2019-03-02T02:01:43.950Z,7.59
2019-03-02T02:04:18.979Z,7.61
2019-03-02T02:06:52.977Z,7.64
2019-03-02T02:09:26.548Z,7.67
2019-03-02T02:11:58.972Z,7.73
2019-03-02T02:14:30.915Z,7.71
2019-03-02T02:17:04.923Z,7.76
2019-03-02T02:19:39.651Z,7.89
2019-03-02T02:22:13.085Z,7.93
2019-03-02T02:24:46.959Z,7.95
2019-03-02T02:27:22.505Z,7.96
2019-03-02T02:29:52.932Z,7.97
2019-03-02T02:32:25.664Z,7.94
2019-03-02T02:35:00.940Z,8.00
2019-03-02T02:37:37.061Z,7.95
2019-03-02T02:40:08.056Z,7.97
2019-03-02T02:42:43.368Z,7.99
2019-03-02T02:45:16.668Z,7.94
2019-03-02T02:47:53.846Z,7.97
2019-03-02T02:50:29.353Z,7.99
2019-03-02T02:53:06.012Z,7.91
2019-03-02T02:55:36.071Z,7.91
2019-03-02T02:58:12.521Z,8.02
2019-03-02T03:00:43.616Z,7.93
2019-03-02T03:03:16.064Z,8.00
2019-03-02T03:05:54.059Z,7.97
2019-03-02T03:08:39.597Z,7.92
2019-03-02T03:11:13.861Z,7.92
2019-03-02T03:13:46.399Z,7.91
2019-03-02T03:16:20.799Z,7.82
2019-03-02T03:18:53.777Z,7.80
2019-03-02T03:21:27.758Z,7.69
2019-03-02T03:24:04.099Z,7.69
2019-03-02T03:26:37.566Z,7.67
2019-03-02T03:29:11.139Z,7.75
2019-03-02T03:31:43.505Z,7.69
2019-03-02T03:34:29.006Z,7.58
2019-03-02T03:36:49.884Z,7.52
2019-03-02T03:39:21.586Z,7.54
2019-03-02T03:41:55.511Z,7.62
2019-03-02T03:44:29.412Z,7.65
2019-03-02T03:47:02.056Z,7.52
2019-03-02T03:49:35.488Z,7.45
2019-03-02T03:52:09.121Z,7.37
2019-03-02T03:54:45.439Z,7.42
2019-03-02T03:57:21.568Z,7.42
2019-03-02T03:59:53.547Z,7.37
2019-03-02T04:02:31.379Z,7.34
2019-03-02T04:05:08.733Z,7.35
2019-03-02T04:07:38.133Z,7.30
2019-03-02T04:10:12.370Z,7.30
2019-03-02T04:12:46.559Z,7.38
2019-03-02T04:15:19.459Z,7.26
2019-03-02T04:17:52.659Z,7.18
2019-03-02T04:20:29.011Z,7.28
2019-03-02T04:23:05.194Z,7.27
2019-03-02T04:25:37.605Z,7.20
2019-03-02T04:28:10.559Z,7.17
2019-03-02T04:30:45.307Z,7.16
2019-03-02T04:33:16.604Z,7.20
2019-03-02T04:35:49.845Z,7.19
2019-03-02T04:38:23.623Z,7.14
2019-03-02T04:41:00.725Z,7.23
2019-03-02T04:43:33.594Z,7.14
2019-03-02T04:46:06.679Z,7.10
2019-03-02T04:48:39.325Z,7.11
2019-03-02T04:51:12.585Z,7.10
2019-03-02T04:53:46.738Z,7.08
2019-03-02T04:56:24.198Z,7.07
2019-03-02T04:58:58.799Z,7.06
2019-03-02T05:01:31.850Z,7.04
2019-03-02T05:04:04.783Z,7.02
2019-03-02T05:06:36.042Z,7.01
2019-03-02T05:09:08.684Z,7.02
2019-03-02T05:11:40.930Z,7.06
2019-03-02T05:14:14.279Z,7.06
2019-03-02T05:16:46.757Z,7.08
2019-03-02T05:19:19.917Z,7.14
2019-03-02T05:21:53.734Z,7.20
2019-03-02T05:24:25.974Z,7.16
2019-03-02T05:26:58.873Z,7.19
2019-03-02T05:29:32.076Z,7.22
2019-03-02T05:32:03.404Z,7.27
2019-03-02T05:34:36.686Z,7.29
2019-03-02T05:37:09.109Z,7.41
2019-03-02T05:39:40.840Z,7.37
2019-03-02T05:42:14.622Z,7.37
2019-03-02T05:44:46.943Z,7.37
2019-03-02T05:47:19.018Z,7.40
2019-03-02T05:49:54.551Z,7.44
2019-03-02T05:52:28.317Z,7.49
2019-03-02T05:55:02.043Z,7.45
2019-03-02T05:57:36.884Z,7.42
2019-03-02T06:00:11.991Z,7.46
2019-03-02T06:02:44.077Z,7.46
2019-03-02T06:05:17.080Z,7.52
2019-03-02T06:07:49.125Z,7.58
2019-03-02T06:10:25.343Z,7.61
2019-03-02T06:12:58.117Z,7.58
2019-03-02T06:15:32.050Z,7.54
2019-03-02T06:18:07.687Z,7.49
2019-03-02T06:20:38.289Z,7.57
2019-03-02T06:23:11.079Z,7.59
2019-03-02T06:25:43.371Z,7.63
2019-03-02T06:28:19.581Z,7.61
2019-03-02T06:30:53.261Z,7.59
2019-03-02T06:33:36.015Z,7.59
2019-03-02T06:36:10.068Z,7.71
2019-03-02T06:38:44.329Z,7.68
2019-03-02T06:41:17.260Z,7.70
2019-03-02T06:43:50.137Z,7.72
2019-03-02T06:46:23.546Z,7.67
2019-03-02T06:48:56.377Z,7.71
2019-03-02T06:51:28.302Z,7.69
2019-03-02T06:54:01.425Z,7.82
2019-03-02T06:56:35.944Z,7.80
2019-03-02T06:59:08.860Z,7.78
2019-03-02T07:01:41.300Z,7.89
2019-03-02T07:04:12.607Z,7.89
2019-03-02T07:06:46.927Z,7.95
2019-03-02T07:09:18.540Z,7.92
2019-03-02T07:11:50.306Z,8.01
2019-03-02T07:14:23.436Z,8.00
2019-03-02T07:16:55.880Z,7.81
2019-03-02T07:19:32.892Z,7.73
2019-03-02T07:22:04.412Z,7.65
2019-03-02T07:24:36.400Z,7.60
2019-03-02T07:27:08.576Z,7.57
2019-03-02T07:29:40.516Z,7.55
2019-03-02T07:32:14.861Z,7.52
2019-03-02T07:34:49.076Z,7.53
2019-03-02T07:37:22.433Z,7.69
2019-03-02T07:39:56.420Z,7.85
2019-03-02T07:42:33.564Z,7.70
2019-03-02T07:45:07.297Z,7.76
2019-03-02T07:47:38.561Z,7.65
2019-03-02T07:50:10.881Z,7.64
2019-03-02T07:52:44.407Z,7.70
2019-03-02T07:55:19.146Z,7.61
2019-03-02T07:57:50.619Z,7.63
2019-03-02T08:00:25.103Z,7.63
2019-03-02T08:02:56.571Z,7.59
2019-03-02T08:05:30.570Z,7.58
2019-03-02T08:08:02.645Z,7.56
2019-03-02T08:10:38.641Z,7.56
2019-03-02T08:13:11.515Z,7.52
2019-03-02T08:15:46.467Z,7.51
2019-03-02T08:18:21.736Z,7.50
2019-03-02T08:20:57.287Z,7.54
2019-03-02T08:23:28.648Z,7.50
2019-03-02T08:26:03.535Z,7.51
2019-03-02T08:28:37.647Z,7.51
2019-03-02T08:31:10.913Z,7.56
2019-03-02T08:33:46.030Z,7.55
2019-03-02T08:36:17.104Z,7.47
2019-03-02T08:38:50.134Z,7.31
2019-03-02T08:41:24.410Z,7.27
2019-03-02T08:43:56.666Z,7.25
2019-03-02T08:46:27.946Z,7.30
2019-03-02T08:49:02.984Z,7.36
2019-03-02T08:51:33.201Z,7.49
2019-03-02T08:54:06.323Z,7.62
2019-03-02T08:56:37.860Z,7.80
2019-03-02T08:59:11.869Z,7.89
2019-03-02T09:01:44.511Z,7.98
2019-03-02T09:04:16.999Z,7.90
2019-03-02T09:06:51.602Z,7.91
2019-03-02T09:09:23.393Z,7.98
2019-03-02T09:11:58.757Z,7.93
2019-03-02T09:14:31.761Z,7.87
2019-03-02T09:17:06.009Z,7.94
2019-03-02T09:19:39.191Z,7.99
2019-03-02T09:22:13.166Z,8.15
2019-03-02T09:24:45.781Z,8.35
2019-03-02T09:27:19.921Z,8.48
2019-03-02T09:29:55.847Z,8.61
2019-03-02T09:32:26.162Z,8.66
2019-03-02T09:34:59.035Z,8.73
2019-03-02T09:37:31.172Z,8.74
2019-03-02T09:40:06.132Z,8.81
2019-03-02T09:42:40.402Z,8.81
2019-03-02T09:45:15.139Z,8.90
2019-03-02T09:47:47.947Z,8.90
2019-03-02T09:50:24.632Z,8.91
2019-03-02T09:52:57.218Z,8.90
2019-03-02T09:55:30.169Z,8.91
2019-03-02T09:58:02.108Z,8.91
2019-03-02T10:00:35.981Z,9.00
2019-03-02T10:03:10.075Z,9.02
2019-03-02T10:05:46.600Z,9.09
2019-03-02T10:08:19.127Z,9.08
2019-03-02T10:10:54.645Z,9.00
2019-03-02T10:13:27.030Z,8.88
2019-03-02T10:16:00.622Z,8.87
2019-03-02T10:18:34.056Z,8.77
2019-03-02T10:21:06.457Z,8.79
2019-03-02T10:23:38.942Z,8.72
2019-03-02T10:26:11.690Z,8.67
2019-03-02T10:28:44.374Z,8.65
2019-03-02T10:31:17.260Z,8.57
2019-03-02T10:33:50.347Z,8.55
2019-03-02T10:36:25.705Z,8.56
2019-03-02T10:38:59.402Z,8.65
2019-03-02T10:41:33.382Z,8.65
2019-03-02T10:44:05.781Z,8.74
2019-03-02T10:46:39.454Z,8.71
2019-03-02T10:49:13.241Z,8.71
2019-03-02T10:51:49.331Z,8.62
2019-03-02T10:54:22.491Z,8.85
2019-03-02T10:56:56.703Z,8.78
2019-03-02T10:59:30.668Z,8.76
2019-03-02T11:02:03.483Z,8.68
2019-03-02T11:04:46.630Z,8.65
2019-03-02T11:07:36.645Z,8.61
2019-03-02T11:10:32.594Z,8.52
2019-03-02T11:13:20.810Z,8.51
2019-03-02T11:16:11.814Z,8.43
2019-03-02T11:19:11.306Z,8.41
2019-03-02T11:22:16.676Z,8.33
2019-03-02T11:25:20.459Z,8.31
2019-03-02T11:28:07.195Z,8.23
2019-03-02T11:31:05.841Z,8.32
2019-03-02T11:33:55.960Z,8.32
2019-03-02T11:36:50.712Z,8.37
2019-03-02T11:39:44.116Z,8.49
2019-03-02T11:42:23.070Z,8.54
2019-03-02T11:45:16.948Z,8.52
2019-03-02T11:48:13.692Z,8.67
2019-03-02T11:50:54.555Z,8.55
2019-03-02T11:53:38.233Z,8.51
2019-03-02T11:56:26.866Z,8.38
2019-03-02T11:59:25.453Z,8.20
2019-03-02T12:02:24.787Z,8.08
2019-03-02T12:05:15.876Z,7.98
2019-03-02T12:08:18.029Z,7.99
2019-03-02T12:11:10.452Z,8.00
2019-03-02T12:14:05.936Z,8.03
2019-03-02T12:17:04.438Z,8.15
2019-03-02T12:20:02.163Z,8.25
2019-03-02T12:22:54.745Z,8.31
2019-03-02T12:25:58.930Z,8.41
2019-03-02T12:28:59.350Z,8.62
2019-03-02T12:31:48.611Z,8.76
2019-03-02T12:34:34.610Z,8.78
2019-03-02T12:37:28.552Z,8.87
2019-03-02T12:40:11.590Z,8.94
2019-03-02T12:42:53.177Z,9.02
2019-03-02T12:45:43.650Z,9.08
2019-03-02T12:48:23.641Z,9.03
2019-03-02T12:51:03.312Z,9.05
2019-03-02T12:53:54.107Z,9.08
2019-03-02T12:56:50.246Z,9.11
2019-03-02T12:59:59.557Z,9.11
2019-03-02T13:02:51.341Z,9.22
2019-03-02T13:05:44.189Z,9.15
2019-03-02T13:08:39.752Z,9.08
2019-03-02T13:11:47.648Z,9.07
2019-03-02T13:14:39.042Z,8.68
2019-03-02T13:17:40.758Z,9.15
2019-03-02T13:20:27.159Z,9.21
2019-03-02T13:23:07.745Z,9.22
2019-03-02T13:26:01.775Z,9.30
2019-03-02T13:28:46.552Z,9.30
2019-03-02T13:31:40.043Z,9.33
2019-03-02T13:34:28.067Z,9.17
2019-03-02T13:37:20.307Z,9.06
2019-03-02T13:40:12.344Z,8.91
2019-03-02T13:43:12.096Z,8.76
2019-03-02T13:46:07.314Z,8.70
2019-03-02T13:48:58.263Z,8.68
2019-03-02T13:51:49.411Z,8.51
2019-03-02T13:54:33.862Z,8.52
2019-03-02T13:57:20.898Z,8.52
2019-03-02T14:00:07.899Z,8.54
2019-03-02T14:03:15.552Z,8.54
2019-03-02T14:06:09.162Z,8.55
2019-03-02T14:09:04.432Z,8.54
2019-03-02T14:11:59.060Z,8.55
2019-03-02T14:14:52.434Z,8.62
2019-03-02T14:17:42.982Z,8.71
2019-03-02T14:20:34.326Z,8.71
2019-03-02T14:23:26.301Z,8.64
2019-03-02T14:26:09.904Z,8.58
2019-03-02T14:29:03.250Z,8.51
2019-03-02T14:32:02.639Z,8.53
2019-03-02T14:34:58.197Z,8.58
2019-03-02T14:37:36.301Z,8.62
2019-03-02T14:40:14.701Z,8.54
2019-03-02T14:43:09.685Z,8.58
2019-03-02T14:45:47.718Z,8.48
2019-03-02T14:48:32.038Z,8.51
2019-03-02T14:51:22.839Z,8.54
2019-03-02T14:54:17.243Z,8.54
2019-03-02T14:56:59.154Z,8.49
2019-03-02T14:59:51.493Z,8.49
2019-03-02T15:02:39.254Z,8.44
2019-03-02T15:05:29.376Z,8.46
2019-03-02T15:08:16.175Z,8.48
2019-03-02T15:11:03.519Z,8.44
2019-03-02T15:14:05.618Z,8.33
2019-03-02T15:16:46.714Z,8.32
2019-03-02T15:19:39.540Z,8.32
2019-03-02T15:22:46.582Z,8.27
2019-03-02T15:25:30.656Z,8.28
2019-03-02T15:28:29.327Z,8.22
2019-03-02T15:31:16.738Z,8.16
2019-03-02T15:34:13.930Z,8.14
2019-03-02T15:36:57.267Z,8.13
2019-03-02T15:39:53.486Z,8.09
2019-03-02T15:42:45.907Z,8.09
2019-03-02T15:45:38.681Z,8.06
2019-03-02T15:48:29.111Z,8.00
2019-03-02T15:51:26.954Z,7.97
2019-03-02T15:54:07.557Z,7.91
2019-03-02T15:57:05.656Z,7.87
2019-03-02T15:59:46.557Z,7.79
2019-03-02T16:02:46.043Z,7.67
2019-03-02T16:05:29.090Z,7.61
2019-03-02T16:08:20.054Z,7.60
2019-03-02T16:11:24.077Z,7.52
2019-03-02T16:14:11.730Z,7.51
2019-03-02T16:17:03.649Z,7.42
2019-03-02T16:19:50.407Z,7.38
2019-03-02T16:22:49.604Z,7.33
2019-03-02T16:25:41.336Z,7.28
2019-03-02T16:28:29.695Z,7.21
2019-03-02T16:31:35.191Z,7.15
2019-03-02T16:34:27.421Z,7.10
2019-03-02T16:37:37.629Z,7.10
2019-03-02T16:40:38.876Z,7.08
2019-03-02T16:43:48.376Z,7.06
2019-03-02T16:46:34.992Z,7.26
2019-03-02T16:49:20.703Z,7.11
2019-03-02T16:52:11.108Z,7.03
2019-03-02T16:55:06.044Z,7.08
2019-03-02T16:57:49.615Z,7.02
2019-03-02T17:00:32.405Z,7.02
2019-03-02T17:03:25.270Z,7.01
2019-03-02T17:06:20.053Z,6.96
2019-03-02T17:09:11.795Z,6.94
2019-03-02T17:11:53.765Z,6.91
2019-03-02T17:14:45.944Z,6.89
2019-03-02T17:17:45.284Z,6.13
2019-03-02T17:20:44.697Z,6.86
2019-03-02T17:23:42.416Z,6.85
2019-03-02T17:26:26.704Z,6.85
2019-03-02T17:29:19.360Z,6.86
2019-03-02T17:32:21.213Z,6.85
2019-03-02T17:35:20.746Z,6.86
2019-03-02T17:38:08.182Z,6.86
2019-03-02T17:40:45.852Z,6.54
2019-03-02T17:43:28.422Z,6.86
2019-03-02T17:46:18.081Z,6.86
2019-03-02T17:48:59.912Z,6.87
2019-03-02T17:51:44.108Z,6.88
2019-03-02T17:54:42.548Z,6.87
2019-03-02T17:57:33.235Z,6.88
2019-03-02T18:00:44.240Z,6.89
2019-03-02T18:03:31.794Z,6.88
2019-03-02T18:06:35.415Z,6.87
2019-03-02T18:09:32.536Z,6.89
2019-03-02T18:12:29.407Z,6.87
2019-03-02T18:15:22.008Z,6.86
2019-03-02T18:18:03.827Z,6.86
2019-03-02T18:20:36.448Z,6.85
2019-03-02T18:23:11.295Z,6.83
2019-03-02T18:25:48.561Z,6.82
2019-03-02T18:28:21.614Z,6.82
2019-03-02T18:30:54.450Z,6.82
2019-03-02T18:33:39.745Z,6.83
2019-03-02T18:36:13.198Z,6.84
2019-03-02T18:38:51.321Z,6.84
2019-03-02T18:41:24.657Z,6.84
2019-03-02T18:43:59.383Z,6.83
2019-03-02T18:46:33.765Z,6.81
2019-03-02T18:49:15.127Z,6.81
2019-03-02T18:52:02.077Z,6.79
2019-03-02T18:54:36.437Z,6.78
2019-03-02T18:57:13.255Z,6.79
2019-03-02T18:59:48.195Z,6.78
2019-03-02T19:02:24.331Z,6.78
2019-03-02T19:04:58.699Z,6.77
2019-03-02T19:07:35.935Z,6.76
2019-03-02T19:10:09.024Z,6.76
2019-03-02T19:12:43.137Z,6.75
2019-03-02T19:15:18.318Z,6.75
2019-03-02T19:17:54.317Z,6.76
2019-03-02T19:20:29.608Z,6.77
2019-03-02T19:23:08.443Z,6.77
2019-03-02T19:25:44.623Z,6.77
2019-03-02T19:28:20.469Z,6.77
2019-03-02T19:30:56.847Z,6.77
2019-03-02T19:33:33.618Z,6.77
2019-03-02T19:36:07.195Z,6.76
2019-03-02T19:38:39.807Z,6.77
2019-03-02T19:41:11.891Z,6.77
2019-03-02T19:43:45.600Z,6.76
2019-03-02T19:46:19.048Z,6.75
2019-03-02T19:48:51.062Z,6.76
2019-03-02T19:51:23.003Z,6.74
2019-03-02T19:53:55.022Z,6.74
2019-03-02T19:56:28.769Z,6.73
2019-03-02T19:59:03.836Z,6.73
2019-03-02T20:01:41.756Z,6.74
2019-03-02T20:04:18.887Z,6.71
2019-03-02T20:06:53.145Z,6.70
2019-03-02T20:09:28.315Z,6.70
2019-03-02T20:12:03.971Z,6.69
2019-03-02T20:14:44.590Z,6.69
2019-03-02T20:17:18.136Z,6.68
2019-03-02T20:19:54.819Z,6.67
2019-03-02T20:22:29.269Z,6.62
2019-03-02T20:25:03.504Z,6.60
2019-03-02T20:27:36.675Z,6.60
2019-03-02T20:30:16.715Z,6.59
2019-03-02T20:32:51.577Z,6.60
2019-03-02T20:35:23.491Z,6.59
2019-03-02T20:37:58.910Z,6.60
2019-03-02T20:40:31.509Z,6.60
2019-03-02T20:43:05.518Z,6.59
2019-03-02T20:45:41.331Z,6.58
2019-03-02T20:48:19.010Z,6.55
2019-03-02T20:50:53.156Z,6.54
2019-03-02T20:53:24.822Z,6.53
2019-03-02T20:56:00.895Z,6.51
2019-03-02T20:58:33.376Z,6.49
2019-03-02T21:01:09.326Z,6.52
2019-03-02T21:03:42.334Z,6.62
2019-03-02T21:06:15.179Z,6.63
2019-03-02T21:08:48.532Z,6.65
2019-03-02T21:11:22.722Z,6.62
2019-03-02T21:13:59.595Z,6.63
2019-03-02T21:16:36.027Z,6.63
2019-03-02T21:19:09.098Z,6.64
2019-03-02T21:21:42.664Z,6.63
2019-03-02T21:24:17.676Z,6.66
2019-03-02T21:26:52.794Z,6.65
2019-03-02T21:29:24.346Z,6.64
2019-03-02T21:31:57.286Z,6.62
2019-03-02T21:34:32.332Z,6.59
2019-03-02T21:37:03.829Z,6.57
2019-03-02T21:39:35.605Z,6.55
2019-03-02T21:42:08.325Z,6.54
2019-03-02T21:44:42.411Z,6.52
2019-03-02T21:47:15.898Z,6.51
2019-03-02T21:49:48.493Z,6.48
2019-03-02T21:52:21.467Z,6.44
2019-03-02T21:54:56.480Z,6.42
2019-03-02T21:57:29.680Z,6.41
2019-03-02T22:00:03.117Z,6.38
2019-03-02T22:02:36.564Z,6.35
2019-03-02T22:05:12.829Z,6.32
2019-03-02T22:07:47.262Z,6.32
2019-03-02T22:10:30.831Z,6.31
2019-03-02T22:13:03.872Z,6.29
2019-03-02T22:15:39.179Z,6.29
2019-03-02T22:18:11.642Z,6.28
2019-03-02T22:20:48.326Z,6.26
2019-03-02T22:23:22.403Z,6.26
2019-03-02T22:25:56.054Z,6.26
2019-03-02T22:28:28.899Z,6.25
2019-03-02T22:31:01.730Z,6.23
2019-03-02T22:33:33.772Z,6.20
2019-03-02T22:36:06.097Z,6.15
2019-03-02T22:38:42.791Z,6.11
2019-03-02T22:41:17.398Z,6.06
2019-03-02T22:43:50.760Z,5.99
2019-03-02T22:46:24.498Z,5.96
2019-03-02T22:48:58.963Z,5.92
2019-03-02T22:51:30.692Z,5.87
2019-03-02T22:54:04.532Z,5.84
2019-03-02T22:56:39.936Z,5.78
2019-03-02T22:59:11.803Z,5.75
2019-03-02T23:01:59.872Z,5.71
2019-03-02T23:04:32.739Z,5.69
2019-03-02T23:07:06.948Z,5.69
2019-03-02T23:09:39.489Z,5.68
2019-03-02T23:12:11.778Z,5.66
2019-03-02T23:14:47.388Z,5.63
2019-03-02T23:17:20.041Z,5.59
2019-03-02T23:19:52.337Z,5.55
2019-03-02T23:22:26.006Z,5.49
2019-03-02T23:24:58.823Z,5.45
2019-03-02T23:27:33.518Z,5.43
2019-03-02T23:30:07.528Z,5.40
2019-03-02T23:32:41.676Z,5.39
2019-03-02T23:35:25.539Z,5.39
2019-03-02T23:38:01.277Z,5.38
2019-03-02T23:40:39.063Z,5.35
2019-03-02T23:43:12.564Z,5.31
2019-03-02T23:45:45.755Z,5.33
2019-03-02T23:48:20.041Z,5.34
2019-03-02T23:50:56.391Z,5.34
2019-03-02T23:53:28.011Z,5.38
2019-03-02T23:56:06.684Z,5.39
2019-03-02T23:58:43.864Z,5.40
